.
WxDataArchive / Data Records for 2006-05-16
2006-05-15 May 2006 2006-05-17

Data Records for Tuesday, 16 May 2006

Time	Temp	Chill	HIndex	Humid	Dewpt	 Wind 	HiWind	WindDir	Rain 	Barom 
-----	----	-----	------	-----	-----	------	------	-------	-----	----- 
00:00	52.6	52.6	52.6	94	50.9	0	0	---	0.00	29.780 
00:05	52.6	52.6	52.6	94	50.9	0	0	---	0.00	29.780 
00:10	52.6	52.6	52.6	94	50.9	0	1	270	0.00	29.780 
00:15	52.6	52.6	52.6	94	50.9	0	0	---	0.00	29.779 
00:20	52.6	52.6	52.6	94	50.9	0	1	270	0.00	29.779 
00:25	52.6	52.6	52.6	94	50.9	0	1	270	0.00	29.779 
00:30	52.6	52.6	52.6	93	50.6	0	0	---	0.00	29.776 
00:35	52.6	52.6	52.6	93	50.6	0	1	270	0.00	29.776 
00:40	52.6	52.6	52.6	93	50.6	0	1	270	0.00	29.776 
00:45	52.6	52.6	52.6	93	50.6	0	1	270	0.00	29.776 
00:50	52.6	52.6	52.6	93	50.6	0	0	---	0.00	29.776 
00:55	52.5	52.5	52.5	92	50.2	0	0	---	0.00	29.776 
01:00	52.5	52.5	52.5	92	50.2	0	1	270	0.00	29.774 
01:05	52.3	52.3	52.3	92	50.0	0	1	270	0.00	29.774 
01:10	52.3	52.3	52.3	92	50.0	0	0	---	0.00	29.774 
01:15	52.2	52.2	52.2	92	49.9	0	0	---	0.00	29.769 
01:20	52.0	52.0	52.0	92	49.7	0	0	---	0.00	29.769 
01:25	52.0	52.0	52.0	92	49.7	0	0	---	0.00	29.769 
01:30	51.9	51.9	51.9	92	49.6	0	0	---	0.00	29.769 
01:35	51.9	51.9	51.9	92	49.6	0	0	---	0.00	29.769 
01:40	51.9	51.9	51.9	92	49.6	0	0	---	0.00	29.769 
01:45	51.9	51.9	51.9	93	49.9	0	0	---	0.00	29.763 
01:50	52.0	52.0	52.0	93	50.0	0	1	270	0.00	29.763 
01:55	51.9	51.9	51.9	92	49.6	0	1	270	0.00	29.763 
02:00	51.7	51.7	51.7	92	49.5	0	0	---	0.01	29.757 
02:05	51.6	51.6	51.6	92	49.4	0	1	270	0.00	29.757 
02:10	51.6	51.6	51.6	93	49.6	0	0	---	0.00	29.757 
02:15	51.4	51.4	51.4	93	49.4	0	0	---	0.00	29.756 
02:20	51.6	51.6	51.6	93	49.6	0	0	---	0.00	29.756 
02:25	51.6	51.6	51.6	93	49.6	0	0	---	0.00	29.756 
02:30	51.6	51.6	51.6	93	49.6	0	1	270	0.00	29.754 
02:35	51.6	51.6	51.6	93	49.6	0	1	270	0.00	29.754 
02:40	51.6	51.6	51.6	94	49.9	0	0	---	0.00	29.754 
02:45	51.6	51.6	51.6	94	49.9	0	0	---	0.00	29.748 
02:50	51.6	51.6	51.6	94	49.9	0	0	---	0.00	29.748 
02:55	51.7	51.7	51.7	94	50.0	0	0	---	0.00	29.748 
03:00	51.7	51.7	51.7	94	50.0	0	0	---	0.00	29.743 
03:05	51.7	51.7	51.7	94	50.0	0	0	---	0.00	29.743 
03:10	51.7	51.7	51.7	94	50.0	0	1	270	0.00	29.743 
03:15	51.9	51.9	51.9	94	50.2	0	1	270	0.00	29.742 
03:20	51.9	51.9	51.9	94	50.2	0	0	---	0.00	29.742 
03:25	51.9	51.9	51.9	94	50.2	0	0	---	0.00	29.742 
03:30	51.9	51.9	51.9	94	50.2	0	0	---	0.00	29.741 
03:35	51.9	51.9	51.9	94	50.2	0	0	---	0.00	29.741 
03:40	51.9	51.9	51.9	94	50.2	0	0	---	0.00	29.741 
03:45	51.9	51.9	51.9	94	50.2	0	0	---	0.00	29.740 
03:50	51.9	51.9	51.9	94	50.2	0	1	270	0.00	29.740 
03:55	51.9	51.9	51.9	94	50.2	0	1	270	0.00	29.740 
04:00	51.9	51.9	51.9	94	50.2	0	1	270	0.00	29.742 
04:05	51.9	51.9	51.9	94	50.2	0	1	270	0.00	29.742 
04:10	51.7	51.7	51.7	93	49.7	0	1	270	0.00	29.742 
04:15	51.7	51.7	51.7	93	49.7	0	1	270	0.00	29.738 
04:20	51.6	51.6	51.6	93	49.6	0	1	270	0.00	29.738 
04:25	51.4	51.4	51.4	93	49.4	0	1	270	0.00	29.738 
04:30	51.4	51.4	51.4	93	49.4	0	0	---	0.00	29.736 
04:35	51.3	51.3	51.3	93	49.3	0	1	270	0.00	29.736 
04:40	51.4	51.4	51.4	93	49.4	0	1	270	0.00	29.736 
04:45	51.4	51.4	51.4	93	49.4	0	0	---	0.00	29.733 
04:50	51.4	51.4	51.4	93	49.4	0	1	270	0.00	29.733 
04:55	51.4	51.4	51.4	93	49.4	0	1	270	0.00	29.733 
05:00	51.4	51.4	51.4	93	49.4	0	0	---	0.00	29.736 
05:05	51.4	51.4	51.4	93	49.4	0	1	270	0.00	29.736 
05:10	51.3	51.3	51.3	93	49.3	0	1	270	0.00	29.736 
05:15	51.3	51.3	51.3	93	49.3	0	1	270	0.00	29.737 
05:20	51.3	51.3	51.3	93	49.3	0	1	270	0.00	29.737 
05:25	51.3	51.3	51.3	93	49.3	0	1	270	0.00	29.737 
05:30	51.3	51.3	51.3	93	49.3	0	1	270	0.00	29.737 
05:35	51.3	51.3	51.3	92	49.1	0	1	270	0.00	29.737 
05:40	51.3	51.3	51.3	92	49.1	0	1	270	0.00	29.737 
05:45	51.3	51.3	51.3	92	49.1	0	1	270	0.00	29.736 
05:50	51.3	51.3	51.3	92	49.1	0	1	270	0.00	29.736 
05:55	51.1	51.1	51.1	92	48.9	0	1	270	0.00	29.736 
06:00	51.1	51.1	51.1	92	48.9	0	1	270	0.00	29.737 
06:05	51.1	51.1	51.1	92	48.9	0	1	270	0.00	29.737 
06:10	51.0	51.0	51.0	92	48.8	0	1	270	0.00	29.737 
06:15	51.0	51.0	51.0	92	48.8	0	0	---	0.00	29.739 
06:20	51.0	51.0	51.0	92	48.8	0	1	270	0.00	29.739 
06:25	50.8	50.8	50.8	92	48.6	0	1	270	0.00	29.739 
06:30	50.8	50.8	50.8	92	48.6	0	1	270	0.00	29.738 
06:35	50.7	50.7	50.7	92	48.5	0	1	270	0.00	29.738 
06:40	50.5	50.5	50.5	92	48.3	0	0	---	0.00	29.738 
06:45	50.4	50.4	50.4	92	48.2	0	1	270	0.00	29.740 
06:50	50.2	50.2	50.2	92	48.0	0	0	---	0.00	29.740 
06:55	50.2	50.2	50.2	92	48.0	0	1	270	0.00	29.740 
07:00	50.2	50.2	50.2	93	48.3	0	1	270	0.00	29.741 
07:05	50.2	50.2	50.2	93	48.3	0	1	270	0.00	29.741 
07:10	50.2	50.2	50.2	93	48.3	0	1	270	0.00	29.741 
07:15	50.2	50.2	50.2	93	48.3	0	1	270	0.00	29.742 
07:20	50.2	50.2	50.2	93	48.3	0	0	---	0.00	29.742 
07:25	50.2	50.2	50.2	93	48.3	0	2	270	0.00	29.742 
07:30	50.4	50.4	50.4	93	48.5	0	1	270	0.00	29.743 
07:35	50.5	50.5	50.5	93	48.6	0	2	270	0.00	29.743 
07:40	50.7	50.7	50.7	93	48.7	0	1	270	0.00	29.743 
07:45	50.8	50.8	50.8	93	48.8	0	2	270	0.00	29.743 
07:50	51.0	51.0	51.0	93	49.0	0	2	270	0.00	29.743 
07:55	51.1	51.1	51.1	93	49.1	1	2	270	0.00	29.743 
08:00	51.1	51.1	51.1	93	49.1	0	2	270	0.00	29.745 
08:05	51.3	51.3	51.3	93	49.3	0	1	270	0.00	29.745 
08:10	51.6	51.6	51.6	92	49.4	0	1	270	0.00	29.745 
08:15	51.7	51.7	51.7	92	49.5	0	1	270	0.00	29.749 
08:20	51.9	51.9	51.9	92	49.6	0	1	270	0.00	29.749 
08:25	52.0	52.0	52.0	92	49.7	1	3	248	0.00	29.749 
08:30	52.2	52.2	52.2	91	49.7	0	2	248	0.00	29.749 
08:35	52.2	52.2	52.2	91	49.7	1	2	248	0.00	29.749 
08:40	52.3	52.3	52.3	90	49.5	0	2	248	0.00	29.749 
08:45	52.5	52.5	52.5	90	49.7	0	2	270	0.00	29.748 
08:50	52.9	52.9	52.9	89	49.7	0	2	270	0.00	29.748 
08:55	53.5	53.5	53.5	89	50.3	0	1	292	0.00	29.748 
09:00	54.1	54.1	54.1	88	50.6	1	3	248	0.00	29.749 
09:05	54.1	54.1	54.1	86	50.0	1	2	248	0.00	29.749 
09:10	54.1	54.1	54.1	86	50.0	1	3	248	0.00	29.749 
09:15	53.9	53.9	53.9	85	49.5	1	4	270	0.00	29.751 
09:20	54.4	54.4	54.4	87	50.6	0	1	292	0.00	29.751 
09:25	55.1	55.1	55.1	84	50.4	1	3	292	0.00	29.751 
09:30	55.4	55.4	55.4	84	50.6	1	3	315	0.00	29.751 
09:35	55.6	55.6	55.6	82	50.2	1	3	248	0.00	29.751 
09:40	55.7	55.7	55.7	83	50.6	2	4	248	0.00	29.751 
09:45	55.7	55.7	55.7	81	50.0	1	4	292	0.00	29.749 
09:50	56.0	56.0	56.0	81	50.3	1	5	292	0.00	29.749 
09:55	56.3	56.3	56.3	80	50.2	2	4	248	0.00	29.749 
10:00	56.2	56.2	56.2	80	50.1	1	3	315	0.00	29.752 
10:05	56.3	56.3	56.3	81	50.5	1	2	315	0.00	29.752 
10:10	56.6	56.6	56.6	78	49.8	2	4	292	0.00	29.752 
10:15	56.6	56.6	56.6	80	50.5	0	2	292	0.00	29.749 
10:20	56.7	56.7	56.7	80	50.6	1	3	248	0.00	29.749 
10:25	56.7	56.7	56.7	80	50.6	0	2	248	0.00	29.749 
10:30	56.9	56.9	56.9	79	50.5	0	2	248	0.00	29.748 
10:35	57.0	57.0	57.0	79	50.5	1	2	248	0.00	29.748 
10:40	56.9	56.9	56.9	78	50.1	1	3	248	0.00	29.748 
10:45	57.0	57.0	57.0	78	50.2	1	3	248	0.00	29.748 
10:50	57.0	57.0	57.0	79	50.5	1	3	292	0.00	29.748 
10:55	57.2	57.2	57.2	80	51.1	1	3	292	0.00	29.748 
11:00	57.2	57.2	57.2	79	50.7	1	3	292	0.00	29.748 
11:05	57.8	57.8	57.8	80	51.7	1	3	248	0.00	29.748 
11:10	58.3	58.3	58.3	79	51.8	2	5	248	0.00	29.748 
11:15	58.4	58.4	58.4	77	51.2	2	3	248	0.00	29.743 
11:20	58.6	58.6	58.6	78	51.8	1	2	270	0.00	29.743 
11:25	58.3	58.3	58.3	78	51.5	2	3	270	0.00	29.743 
11:30	57.8	57.8	57.8	77	50.6	2	4	315	0.00	29.741 
11:35	57.8	57.8	57.8	79	51.3	2	4	248	0.00	29.741 
11:40	58.6	58.6	58.6	77	51.4	2	4	270	0.00	29.741 
11:45	58.9	58.9	58.9	78	52.0	3	5	248	0.00	29.734 
11:50	59.2	59.2	59.2	78	52.3	2	4	248	0.00	29.734 
11:55	59.8	59.8	59.8	78	52.9	1	3	248	0.00	29.734 
12:00	59.5	59.5	59.5	76	51.9	2	3	248	0.00	29.735 
12:05	59.0	59.0	59.0	77	51.8	2	4	248	0.00	29.735 
12:10	59.0	59.0	59.0	78	52.1	2	4	292	0.00	29.735 
12:15	59.5	59.5	59.5	77	52.3	1	4	248	0.00	29.733 
12:20	59.3	59.3	59.3	76	51.7	2	4	248	0.00	29.733 
12:25	59.8	59.8	59.8	76	52.2	1	3	248	0.00	29.733 
12:30	61.0	61.0	61.0	76	53.4	2	4	270	0.00	29.730 
12:35	61.8	61.8	61.8	72	52.7	2	5	292	0.00	29.730 
12:40	62.1	62.1	62.1	72	53.0	2	4	248	0.00	29.730 
12:45	62.1	62.1	62.1	68	51.4	2	4	270	0.00	29.728 
12:50	61.6	61.6	61.6	72	52.5	2	4	270	0.00	29.728 
12:55	60.9	60.9	60.9	71	51.4	2	4	270	0.00	29.728 
13:00	60.1	60.1	60.1	74	51.8	2	3	270	0.00	29.727 
13:05	59.9	59.9	59.9	75	52.0	2	4	270	0.00	29.727 
13:10	59.6	59.6	59.6	73	50.9	2	4	248	0.00	29.727 
13:15	59.3	59.3	59.3	74	51.0	2	5	270	0.00	29.722 
13:20	59.3	59.3	59.3	73	50.6	2	5	315	0.00	29.722 
13:25	59.3	59.3	59.3	75	51.4	2	5	315	0.00	29.722 
13:30	59.5	59.5	59.5	73	50.8	2	5	315	0.00	29.718 
13:35	59.9	59.9	59.9	72	50.8	3	7	270	0.00	29.718 
13:40	60.4	60.4	60.4	73	51.7	2	3	270	0.00	29.718 
13:45	60.4	60.4	60.4	72	51.3	2	5	292	0.00	29.717 
13:50	60.4	60.4	60.4	72	51.3	2	4	315	0.00	29.717 
13:55	60.4	60.4	60.4	72	51.3	1	3	315	0.00	29.717 
14:00	60.2	60.2	60.2	72	51.1	2	3	270	0.00	29.717 
14:05	59.8	59.8	59.8	72	50.8	2	4	315	0.00	29.717 
14:10	59.5	59.5	59.5	73	50.8	2	5	315	0.00	29.717 
14:15	60.4	60.4	60.4	73	51.7	1	4	248	0.00	29.715 
14:20	61.2	61.2	61.2	76	53.6	0	4	248	0.00	29.715 
14:25	61.3	61.3	61.3	69	51.0	1	3	315	0.00	29.715 
14:30	61.0	61.0	61.0	67	50.0	2	5	315	0.00	29.711 
14:35	60.9	60.9	60.9	68	50.3	1	3	292	0.00	29.711 
14:40	60.7	60.7	60.7	69	50.5	1	4	270	0.00	29.711 
14:45	60.9	60.9	60.9	69	50.7	2	6	270	0.00	29.708 
14:50	61.3	61.3	61.3	69	51.0	2	4	270	0.00	29.708 
14:55	61.3	61.3	61.3	69	51.0	2	3	315	0.00	29.708 
15:00	61.0	61.0	61.0	68	50.4	2	5	315	0.00	29.705 
15:05	61.0	61.0	61.0	69	50.8	2	5	292	0.00	29.705 
15:10	61.3	61.3	61.3	69	51.0	2	5	292	0.00	29.705 
15:15	61.3	61.3	61.3	68	50.6	2	4	315	0.00	29.704 
15:20	61.5	61.5	61.5	67	50.4	2	4	270	0.00	29.704 
15:25	61.3	61.3	61.3	66	49.8	2	9	315	0.00	29.704 
15:30	61.3	61.3	61.3	68	50.6	2	6	338	0.00	29.704 
15:35	61.0	61.0	61.0	69	50.8	2	4	315	0.00	29.704 
15:40	60.9	60.9	60.9	68	50.3	2	4	270	0.00	29.704 
15:45	60.9	60.9	60.9	69	50.7	2	6	270	0.00	29.700 
15:50	60.9	60.9	60.9	66	49.5	2	4	315	0.00	29.700 
15:55	61.2	61.2	61.2	68	50.5	2	5	315	0.00	29.700 
16:00	61.2	61.2	61.2	65	49.3	4	10	292	0.00	29.697 
16:05	61.0	61.0	61.0	66	49.6	3	7	315	0.00	29.697 
16:10	60.7	60.7	60.7	68	50.1	2	5	315	0.00	29.697 
16:15	61.2	61.2	61.2	68	50.5	3	7	270	0.00	29.694 
16:20	61.2	61.2	61.2	69	50.9	3	9	270	0.00	29.694 
16:25	61.0	61.0	61.0	68	50.4	3	5	270	0.00	29.694 
16:30	60.9	60.9	60.9	70	51.0	3	5	270	0.00	29.690 
16:35	60.4	60.4	60.4	69	50.2	3	6	270	0.00	29.690 
16:40	60.1	60.1	60.1	69	49.9	3	5	270	0.00	29.690 
16:45	60.1	60.1	60.1	71	50.7	2	5	315	0.00	29.693 
16:50	60.1	60.1	60.1	71	50.7	2	5	315	0.00	29.693 
16:55	60.1	60.1	60.1	72	51.0	2	5	315	0.00	29.693 
17:00	60.2	60.2	60.2	71	50.8	1	4	292	0.00	29.689 
17:05	60.1	60.1	60.1	71	50.7	2	6	315	0.00	29.689 
17:10	59.8	59.8	59.8	72	50.8	2	4	315	0.00	29.689 
17:15	59.8	59.8	59.8	72	50.8	2	5	292	0.00	29.689 
17:20	59.9	59.9	59.9	72	50.8	2	4	315	0.00	29.689 
17:25	59.6	59.6	59.6	72	50.6	3	7	315	0.00	29.689 
17:30	59.5	59.5	59.5	73	50.8	2	7	270	0.00	29.687 
17:35	59.6	59.6	59.6	74	51.3	1	4	315	0.00	29.687 
17:40	60.1	60.1	60.1	72	51.0	2	4	248	0.00	29.687 
17:45	60.4	60.4	60.4	72	51.3	1	4	248	0.00	29.686 
17:50	60.7	60.7	60.7	71	51.2	2	4	338	0.00	29.686 
17:55	60.1	60.1	60.1	71	50.7	2	5	270	0.00	29.686 
18:00	59.8	59.8	59.8	73	51.1	3	6	315	0.00	29.687 
18:05	59.9	59.9	59.9	72	50.8	2	4	292	0.00	29.687 
18:10	59.9	59.9	59.9	72	50.8	2	7	270	0.00	29.687 
18:15	60.4	60.4	60.4	72	51.3	2	5	270	0.00	29.684 
18:20	60.4	60.4	60.4	71	50.9	2	5	270	0.00	29.684 
18:25	60.4	60.4	60.4	70	50.6	2	5	270	0.00	29.684 
18:30	60.2	60.2	60.2	71	50.8	2	6	270	0.00	29.683 
18:35	60.2	60.2	60.2	72	51.1	2	5	270	0.00	29.683 
18:40	60.4	60.4	60.4	72	51.3	2	4	270	0.00	29.683 
18:45	60.7	60.7	60.7	72	51.6	1	3	270	0.00	29.687 
18:50	60.9	60.9	60.9	71	51.4	1	4	270	0.00	29.687 
18:55	60.5	60.5	60.5	70	50.7	2	4	270	0.00	29.687 
19:00	59.9	59.9	59.9	71	50.5	2	5	248	0.00	29.684 
19:05	59.2	59.2	59.2	73	50.5	2	4	315	0.00	29.684 
19:10	58.9	58.9	58.9	74	50.6	1	3	315	0.00	29.684 
19:15	58.7	58.7	58.7	74	50.4	1	4	292	0.00	29.684 
19:20	58.6	58.6	58.6	75	50.7	1	3	248	0.00	29.684 
19:25	58.6	58.6	58.6	74	50.3	1	3	248	0.00	29.684 
19:30	58.6	58.6	58.6	73	50.0	1	2	315	0.00	29.674 
19:35	58.6	58.6	58.6	75	50.7	1	3	248	0.00	29.674 
19:40	58.4	58.4	58.4	74	50.1	1	4	270	0.00	29.674 
19:45	58.3	58.3	58.3	73	49.7	1	3	338	0.00	29.679 
19:50	58.0	58.0	58.0	74	49.8	1	3	248	0.00	29.679 
19:55	57.6	57.6	57.6	74	49.4	1	3	270	0.00	29.679 
20:00	57.5	57.5	57.5	75	49.6	0	2	270	0.00	29.682 
20:05	57.5	57.5	57.5	76	50.0	0	2	270	0.00	29.682 
20:10	57.2	57.2	57.2	77	50.1	0	2	292	0.00	29.682 
20:15	57.0	57.0	57.0	77	49.9	0	1	292	0.00	29.684 
20:20	56.9	56.9	56.9	78	50.1	0	2	270	0.00	29.684 
20:25	56.7	56.7	56.7	78	49.9	1	3	225	0.00	29.684 
20:30	56.6	56.6	56.6	78	49.8	1	3	248	0.00	29.676 
20:35	56.6	56.6	56.6	78	49.8	1	3	225	0.00	29.676 
20:40	56.5	56.5	56.5	79	50.1	1	4	248	0.00	29.676 
20:45	56.3	56.3	56.3	79	49.9	0	3	248	0.00	29.687 
20:50	56.3	56.3	56.3	79	49.9	0	2	248	0.00	29.687 
20:55	56.2	56.2	56.2	79	49.8	0	1	248	0.00	29.687 
21:00	56.0	56.0	56.0	79	49.6	0	2	248	0.00	29.688 
21:05	55.9	55.9	55.9	80	49.8	1	4	248	0.00	29.688 
21:10	55.7	55.7	55.7	79	49.3	1	3	248	0.00	29.688 
21:15	55.7	55.7	55.7	79	49.3	1	3	315	0.00	29.687 
21:20	55.6	55.6	55.6	80	49.5	1	2	315	0.00	29.687 
21:25	55.4	55.4	55.4	80	49.3	0	2	292	0.00	29.687 
21:30	55.1	55.1	55.1	81	49.4	0	1	292	0.00	29.692 
21:35	55.0	55.0	55.0	81	49.3	0	1	292	0.00	29.692 
21:40	54.7	54.7	54.7	82	49.3	0	2	292	0.00	29.692 
21:45	54.7	54.7	54.7	82	49.3	0	2	248	0.00	29.690 
21:50	54.5	54.5	54.5	83	49.4	0	1	248	0.00	29.690 
21:55	54.5	54.5	54.5	83	49.4	0	1	248	0.00	29.690 
22:00	54.5	54.5	54.5	83	49.4	0	1	248	0.00	29.691 
22:05	54.5	54.5	54.5	84	49.8	0	2	248	0.00	29.691 
22:10	54.4	54.4	54.4	84	49.7	0	1	248	0.00	29.691 
22:15	54.2	54.2	54.2	84	49.5	0	2	248	0.00	29.698 
22:20	54.1	54.1	54.1	84	49.4	0	2	248	0.00	29.698 
22:25	53.9	53.9	53.9	84	49.2	0	1	248	0.00	29.698 
22:30	53.6	53.6	53.6	85	49.2	0	1	248	0.00	29.694 
22:35	53.5	53.5	53.5	85	49.1	0	1	248	0.00	29.694 
22:40	53.2	53.2	53.2	86	49.1	0	1	248	0.00	29.694 
22:45	53.1	53.1	53.1	86	49.0	0	1	248	0.00	29.690 
22:50	52.9	52.9	52.9	87	49.1	0	2	248	0.00	29.690 
22:55	52.6	52.6	52.6	87	48.8	0	1	248	0.00	29.690 
23:00	52.5	52.5	52.5	88	49.0	0	1	248	0.00	29.688 
23:05	52.3	52.3	52.3	88	48.9	0	1	248	0.00	29.688 
23:10	52.2	52.2	52.2	88	48.8	0	0	---	0.00	29.688 
23:15	52.0	52.0	52.0	88	48.6	0	1	248	0.00	29.687 
23:20	51.9	51.9	51.9	89	48.8	0	1	248	0.00	29.687 
23:25	51.7	51.7	51.7	89	48.6	0	1	248	0.00	29.687 
23:30	51.7	51.7	51.7	89	48.6	0	1	248	0.00	29.693 
23:35	51.6	51.6	51.6	89	48.5	0	1	248	0.00	29.693 
23:40	51.4	51.4	51.4	90	48.6	0	1	248	0.00	29.693 
23:45	51.4	51.4	51.4	90	48.6	0	0	---	0.00	29.692 
23:50	51.3	51.3	51.3	90	48.5	0	0	---	0.00	29.692 
23:55	51.1	51.1	51.1	90	48.3	0	0	---	0.00	29.692 

CoCoRaHS
IN-AL-39
A2 Web Hosting
Creative Commons License
GoDaddy
Look for:

loaded 2017-10-16 20:18:04 • last modified 2010-11-18 10:43:29
Privacy PolicyDisclaimer
• wx.awcolley.com is powered by PmWiki v.2002016 •
• all content (unless otherwise noted) © 2017 A W Colley